San Juan Bautista, California
Current Conditions -  °F | °C
As of 2:35 PM on Monday 20 Oct 2014 (Local Time) from KCVH Reporting Station
Broken Clouds Broken Clouds  
Wind Chill: 72°   Ceiling: 4600
Heat Index: 72°   Visibility: 10mi
Dew Point: 59°   Wind: 13mph
Humidity: 64%   Direction: 280°W
Pressure: 29.96"   Gusts: NA
Location:  36.85°N, 121.54°W
Report Text: KCVH 202135Z AUTO 28011KT 10SM SCT038 BKN046 BKN055 22/15 A2996 RMK AO1
Loading
Personal Weather Stations






























Interactive Weather Map
Tropical Storm Tracking
New forecast layout! Learn more

10-Day Weather Forecast

Advertisements
Track Severe Weather on mobile